Time;durP1;ratioP1;P1;durP2;ratioP2;P2;SDS_P1;SDS_P2;PMS_P1;PMS_P2;Temp;Humidity;BMP_temperature;BMP_pressure;BME280_temperature;BME280_humidity;BME280_pressure;Samples;Min_cycle;Max_cycle;Signal;HPM_P1;HPM_P2
2022/04/01 00:02:10;;;;;;;43.20;28.00;;;;;;;;;;5075453;28;20887;-67
2022/04/01 00:04:37;;;;;;;40.43;26.17;;;;;;;;;;5076839;28;20437;-67
2022/04/01 00:07:03;;;;;;;36.33;25.70;;;;;;;;;;5076936;28;20408;-70
2022/04/01 00:09:29;;;;;;;35.07;23.70;;;;;;;;;;5076646;28;20393;-67
2022/04/01 00:11:55;;;;;;;36.10;25.07;;;;;;;;;;5076654;28;20399;-68
2022/04/01 00:14:21;;;;;;;39.27;24.93;;;;;;;;;;5076633;28;20464;-69
2022/04/01 00:16:47;;;;;;;29.17;21.20;;;;;;;;;;5076486;28;20893;-67
2022/04/01 00:19:13;;;;;;;31.33;20.13;;;;;;;;;;5075290;28;20430;-68
2022/04/01 00:21:39;;;;;;;25.80;19.07;;;;;;;;;;5076563;28;20384;-69
2022/04/01 00:24:06;;;;;;;26.60;19.77;;;;;;;;;;5076403;28;20440;-69
2022/04/01 00:26:32;;;;;;;30.23;20.80;;;;;;;;;;5076440;28;20399;-69
2022/04/01 00:28:58;;;;;;;22.00;18.27;;;;;;;;;;5076371;28;20926;-69
2022/04/01 00:31:24;;;;;;;20.80;16.70;;;;;;;;;;5076164;28;20421;-68
2022/04/01 00:34:15;;;;;;;19.13;16.03;;;;;;;;;;5074894;28;20422;-67
2022/04/01 00:36:36;;;;;;;21.27;16.03;;;;;;;;;;5076066;28;20880;-68
2022/04/01 00:39:02;;;;;;;18.37;15.40;;;;;;;;;;5076132;28;20393;-69
2022/04/01 00:41:28;;;;;;;18.80;14.43;;;;;;;;;;5075950;28;20461;-68
2022/04/01 00:44:13;;;;;;;25.70;16.67;;;;;;;;;;5074689;28;20456;-68
2022/04/01 00:46:40;;;;;;;20.13;16.17;;;;;;;;;;5074711;28;20397;-67
2022/04/01 00:49:06;;;;;;;17.63;15.10;;;;;;;;;;5075925;28;20373;-68
2022/04/01 00:51:33;;;;;;;17.33;15.50;;;;;;;;;;5075913;28;20440;-68
2022/04/01 00:53:59;;;;;;;21.80;15.57;;;;;;;;;;5075903;28;20846;-68
2022/04/01 00:56:30;;;;;;;16.67;14.83;;;;;;;;;;5075810;28;20962;-68
2022/04/01 00:58:57;;;;;;;16.03;14.03;;;;;;;;;;5075471;28;20380;-69
2022/04/01 01:01:24;;;;;;;16.00;14.30;;;;;;;;;;5075740;28;20433;-69
2022/04/01 01:03:50;;;;;;;16.73;14.93;;;;;;;;;;5075691;28;20466;-70
2022/04/01 01:06:16;;;;;;;18.60;15.63;;;;;;;;;;5075688;28;20403;-70
2022/04/01 01:08:42;;;;;;;21.07;16.20;;;;;;;;;;5075549;28;20459;-70
2022/04/01 01:11:09;;;;;;;19.10;15.63;;;;;;;;;;5075634;28;20481;-69
2022/04/01 01:13:35;;;;;;;21.07;16.10;;;;;;;;;;5074316;28;20429;-70
2022/04/01 01:16:02;;;;;;;18.33;15.10;;;;;;;;;;5075523;28;20776;-70
2022/04/01 01:18:28;;;;;;;19.47;16.33;;;;;;;;;;5075446;28;20391;-71
2022/04/01 01:20:54;;;;;;;19.40;16.13;;;;;;;;;;5075442;28;20434;-71
2022/04/01 01:23:20;;;;;;;17.07;15.27;;;;;;;;;;5073999;28;20562;-69
2022/04/01 01:25:46;;;;;;;17.83;15.53;;;;;;;;;;5075226;28;20433;-71
2022/04/01 01:28:12;;;;;;;17.13;15.33;;;;;;;;;;5075248;28;20385;-70
2022/04/01 01:30:39;;;;;;;17.10;14.97;;;;;;;;;;5075166;28;20416;-71
2022/04/01 01:33:05;;;;;;;20.40;16.20;;;;;;;;;;5075248;28;20369;-71
2022/04/01 01:35:32;;;;;;;18.90;15.00;;;;;;;;;;5075108;28;20481;-69
2022/04/01 01:37:58;;;;;;;19.27;16.60;;;;;;;;;;5075039;28;20399;-68
2022/04/01 01:40:24;;;;;;;19.40;15.77;;;;;;;;;;5074867;28;20443;-68
2022/04/01 01:42:50;;;;;;;19.57;16.10;;;;;;;;;;5073654;28;20470;-69
2022/04/01 01:45:16;;;;;;;16.40;14.60;;;;;;;;;;5074840;28;20840;-70
2022/04/01 01:47:42;;;;;;;17.43;15.40;;;;;;;;;;5074856;28;20406;-69
2022/04/01 01:55:38;;;;;;;19.67;17.10;;;;;;;;;;5074798;28;20379;-69
2022/04/01 01:58:05;;;;;;;20.77;17.43;;;;;;;;;;5073453;28;20448;-68
2022/04/01 02:00:31;;;;;;;20.13;16.80;;;;;;;;;;5073272;28;20472;-68
2022/04/01 02:02:57;;;;;;;18.87;16.83;;;;;;;;;;5074485;28;20440;-69
2022/04/01 02:05:23;;;;;;;20.73;16.90;;;;;;;;;;5074550;28;20388;-69
2022/04/01 02:07:52;;;;;;;20.83;16.57;;;;;;;;;;5073161;28;20984;-69
2022/04/01 02:10:18;;;;;;;16.27;14.57;;;;;;;;;;5073764;28;20426;-70
2022/04/01 02:12:44;;;;;;;17.53;14.87;;;;;;;;;;5074307;28;20912;-69
2022/04/01 02:15:10;;;;;;;17.17;15.33;;;;;;;;;;5074241;28;20391;-69
2022/04/01 02:17:37;;;;;;;21.13;15.13;;;;;;;;;;5074319;28;20387;-69
2022/04/01 02:20:05;;;;;;;15.70;14.07;;;;;;;;;;5074263;28;20405;-70
2022/04/01 02:22:31;;;;;;;16.43;14.63;;;;;;;;;;5074158;28;20511;-68
2022/04/01 02:24:57;;;;;;;17.20;15.40;;;;;;;;;;5074135;28;20414;-69
2022/04/01 02:27:24;;;;;;;15.03;13.63;;;;;;;;;;5074098;28;20767;-68
2022/04/01 02:29:50;;;;;;;15.40;13.80;;;;;;;;;;5074088;28;20452;-68
2022/04/01 02:32:16;;;;;;;18.30;15.13;;;;;;;;;;5073949;28;20422;-68
2022/04/01 02:34:42;;;;;;;17.33;15.50;;;;;;;;;;5073944;28;20385;-68
2022/04/01 02:37:09;;;;;;;16.27;14.47;;;;;;;;;;5073888;28;20384;-68
2022/04/01 02:39:35;;;;;;;16.17;14.50;;;;;;;;;;5073958;28;20476;-69
2022/04/01 02:42:01;;;;;;;16.50;14.80;;;;;;;;;;5073687;28;20445;-69
2022/04/01 02:44:27;;;;;;;16.50;14.93;;;;;;;;;;5073839;28;20447;-69
2022/04/01 02:46:53;;;;;;;17.67;15.83;;;;;;;;;;5073705;28;20784;-69
2022/04/01 02:49:19;;;;;;;17.40;15.60;;;;;;;;;;5073693;28;20410;-69
2022/04/01 02:51:46;;;;;;;16.43;14.80;;;;;;;;;;5073859;28;20387;-69
2022/04/01 02:54:12;;;;;;;16.13;14.43;;;;;;;;;;5073581;28;20467;-68
2022/04/01 02:56:39;;;;;;;16.83;15.13;;;;;;;;;;5073631;28;20402;-69
2022/04/01 02:59:09;;;;;;;18.60;15.97;;;;;;;;;;5073634;28;20812;-68
2022/04/01 03:01:38;;;;;;;17.93;16.03;;;;;;;;;;5073485;28;20501;-68
2022/04/01 03:04:09;;;;;;;16.93;15.20;;;;;;;;;;5073500;28;20511;-68
2022/04/01 03:06:35;;;;;;;17.23;15.00;;;;;;;;;;5072248;28;20460;-69
2022/04/01 03:09:01;;;;;;;17.60;15.90;;;;;;;;;;5073782;28;20424;-69
2022/04/01 03:11:27;;;;;;;17.53;15.73;;;;;;;;;;5073547;28;20417;-69
2022/04/01 03:13:53;;;;;;;17.63;15.93;;;;;;;;;;5073361;28;20947;-69
2022/04/01 03:16:19;;;;;;;17.63;15.73;;;;;;;;;;5073400;28;20422;-69
2022/04/01 03:18:45;;;;;;;16.83;15.13;;;;;;;;;;5073313;28;20381;-70
2022/04/01 03:21:11;;;;;;;17.80;16.00;;;;;;;;;;5073298;28;20414;-69
2022/04/01 03:23:38;;;;;;;18.27;16.33;;;;;;;;;;5072042;28;20508;-67
2022/04/01 03:26:04;;;;;;;17.83;16.03;;;;;;;;;;5073254;28;20485;-69
2022/04/01 03:28:30;;;;;;;18.70;16.70;;;;;;;;;;5072039;28;20509;-69
2022/04/01 03:30:57;;;;;;;18.30;16.40;;;;;;;;;;5073274;28;20425;-69
2022/04/01 03:33:23;;;;;;;19.00;17.07;;;;;;;;;;5073301;28;20776;-69
2022/04/01 03:35:49;;;;;;;17.63;15.90;;;;;;;;;;5073249;28;20410;-69
2022/04/01 03:38:15;;;;;;;18.27;16.27;;;;;;;;;;5073145;28;20899;-69
2022/04/01 03:40:42;;;;;;;18.70;16.90;;;;;;;;;;5073125;28;20828;-68
2022/04/01 03:43:08;;;;;;;19.47;17.40;;;;;;;;;;5073100;28;20496;-69
2022/04/01 03:45:35;;;;;;;18.90;17.00;;;;;;;;;;5073354;28;20430;-69
2022/04/01 03:48:04;;;;;;;19.80;17.80;;;;;;;;;;5073172;28;20402;-69
2022/04/01 03:50:32;;;;;;;19.30;17.40;;;;;;;;;;5073190;28;20430;-69
2022/04/01 03:53:04;;;;;;;18.50;16.60;;;;;;;;;;5073038;28;20369;-68
2022/04/01 03:55:31;;;;;;;18.17;16.23;;;;;;;;;;5071838;28;20414;-68
2022/04/01 03:58:01;;;;;;;18.40;16.50;;;;;;;;;;5073023;28;20925;-68
2022/04/01 04:00:29;;;;;;;17.73;16.00;;;;;;;;;;5071703;28;20418;-69
2022/04/01 04:02:55;;;;;;;18.10;16.30;;;;;;;;;;5071675;28;20840;-69
2022/04/01 04:05:22;;;;;;;19.47;17.47;;;;;;;;;;5072968;28;20430;-69
2022/04/01 04:07:49;;;;;;;19.27;17.27;;;;;;;;;;5072930;28;20384;-69
2022/04/01 04:10:15;;;;;;;19.63;17.50;;;;;;;;;;5072903;28;20446;-69
2022/04/01 04:12:43;;;;;;;19.87;17.83;;;;;;;;;;5072889;28;20384;-69
2022/04/01 04:15:09;;;;;;;18.87;16.87;;;;;;;;;;5072941;28;20430;-70
2022/04/01 04:17:44;;;;;;;18.93;17.00;;;;;;;;;;5071546;28;20389;-69
2022/04/01 04:20:11;;;;;;;19.03;16.57;;;;;;;;;;5072864;28;20444;-68
2022/04/01 04:22:43;;;;;;;19.53;17.53;;;;;;;;;;5071449;28;20523;-69
2022/04/01 04:25:14;;;;;;;18.40;16.37;;;;;;;;;;5071473;28;20429;-68
2022/04/01 04:27:51;;;;;;;18.60;16.70;;;;;;;;;;5072727;28;20417;-69
2022/04/01 04:30:18;;;;;;;18.80;17.00;;;;;;;;;;5072702;28;20414;-68
2022/04/01 04:33:04;;;;;;;18.57;16.77;;;;;;;;;;5072952;28;20716;-69
2022/04/01 04:35:31;;;;;;;19.07;17.17;;;;;;;;;;5076206;28;20913;-69
2022/04/01 04:37:58;;;;;;;19.10;17.20;;;;;;;;;;5076066;28;20422;-69
2022/04/01 04:40:25;;;;;;;19.27;17.30;;;;;;;;;;5076079;28;20448;-68
2022/04/01 04:42:53;;;;;;;19.73;17.80;;;;;;;;;;5074873;28;20439;-69
2022/04/01 04:45:20;;;;;;;21.93;17.77;;;;;;;;;;5076122;28;20381;-69
2022/04/01 04:47:46;;;;;;;21.10;18.40;;;;;;;;;;5076039;28;20377;-69
2022/04/01 04:50:12;;;;;;;19.07;17.03;;;;;;;;;;5076075;28;20412;-69
2022/04/01 04:52:40;;;;;;;20.37;17.90;;;;;;;;;;5075906;28;20401;-67
2022/04/01 04:55:10;;;;;;;20.00;17.90;;;;;;;;;;5075940;28;20388;-68
2022/04/01 04:57:37;;;;;;;24.05;18.73;;;;;;;;;;5074668;28;20258;-67
2022/04/01 05:00:05;;;;;;;21.47;19.27;;;;;;;;;;5076122;28;20198;-66
2022/04/01 05:02:50;;;;;;;21.03;18.63;;;;;;;;;;5076111;28;20458;-67
2022/04/01 05:05:15;;;;;;;24.15;21.65;;;;;;;;;;5075164;28;20401;-67
2022/04/01 05:08:11;;;;;;;26.37;20.33;;;;;;;;;;5075761;28;20247;-64
2022/04/01 05:10:41;;;;;;;21.67;19.43;;;;;;;;;;5062958;28;20412;-67
2022/04/01 05:13:08;;;;;;;23.90;20.20;;;;;;;;;;5075645;28;20438;-67
2022/04/01 05:15:35;;;;;;;20.87;18.60;;;;;;;;;;5075474;28;20411;-67
2022/04/01 05:18:12;;;;;;;21.73;19.50;;;;;;;;;;5075386;28;20418;-67
2022/04/01 05:20:39;;;;;;;21.30;19.00;;;;;;;;;;5075464;28;20493;-67
2022/04/01 05:23:06;;;;;;;30.30;20.27;;;;;;;;;;5075263;28;20469;-67
2022/04/01 05:25:41;;;;;;;22.27;19.85;;;;;;;;;;5075590;28;20442;-67
2022/04/01 05:28:10;;;;;;;23.75;19.20;;;;;;;;;;5075241;28;20171;-67
2022/04/01 05:30:38;;;;;;;26.97;20.70;;;;;;;;;;5075177;28;20242;-68
2022/04/01 05:33:10;;;;;;;22.30;19.63;;;;;;;;;;5075380;28;20357;-67
2022/04/01 05:35:37;;;;;;;27.27;21.45;;;;;;;;;;5074987;28;21089;-68
2022/04/01 05:38:04;;;;;;;27.20;20.90;;;;;;;;;;5075279;28;20164;-67
2022/04/01 05:40:31;;;;;;;35.10;25.37;;;;;;;;;;5074837;28;20522;-68
2022/04/01 05:42:57;;;;;;;41.03;32.30;;;;;;;;;;5074787;28;20424;-67
2022/04/01 05:45:25;;;;;;;26.70;21.47;;;;;;;;;;5073509;28;20386;-67
2022/04/01 05:47:52;;;;;;;37.30;25.67;;;;;;;;;;5075165;28;20383;-68
2022/04/01 05:50:18;;;;;;;39.40;27.55;;;;;;;;;;5074836;28;20171;-67
2022/04/01 05:52:47;;;;;;;42.40;28.17;;;;;;;;;;5074733;28;20217;-67
2022/04/01 05:55:14;;;;;;;40.90;28.55;;;;;;;;;;5074751;28;20398;-67
2022/04/01 05:57:40;;;;;;;37.80;27.02;;;;;;;;;;5074688;28;20174;-68
2022/04/01 06:00:07;;;;;;;45.27;29.23;;;;;;;;;;5074597;28;20192;-67
2022/04/01 06:02:48;;;;;;;41.17;30.00;;;;;;;;;;5073147;28;20466;-67
2022/04/01 06:05:18;;;;;;;39.50;28.67;;;;;;;;;;5074557;28;20191;-68
2022/04/01 06:07:50;;;;;;;37.80;27.97;;;;;;;;;;5074101;28;20413;-67
2022/04/01 06:10:27;;;;;;;37.13;25.90;;;;;;;;;;5074293;28;20405;-65
2022/04/01 06:13:03;;;;;;;36.30;25.57;;;;;;;;;;5074650;28;20414;-69
2022/04/01 06:15:39;;;;;;;39.20;26.70;;;;;;;;;;5074277;28;20390;-67
2022/04/01 06:18:20;;;;;;;35.50;25.90;;;;;;;;;;5074291;28;20160;-68
2022/04/01 06:20:47;;;;;;;39.50;29.13;;;;;;;;;;5074144;28;20387;-68
2022/04/01 06:23:14;;;;;;;33.90;25.33;;;;;;;;;;5074202;28;20203;-68
2022/04/01 06:25:44;;;;;;;30.50;23.43;;;;;;;;;;5074240;28;20490;-71
2022/04/01 06:28:21;;;;;;;29.83;23.60;;;;;;;;;;5074164;28;20457;-68
2022/04/01 06:30:48;;;;;;;28.35;21.67;;;;;;;;;;5074271;28;20442;-67
2022/04/01 06:33:35;;;;;;;31.05;22.92;;;;;;;;;;5073977;28;20509;-67
2022/04/01 06:36:03;;;;;;;30.58;24.05;;;;;;;;;;5043590;28;20202;-68
2022/04/01 06:38:29;;;;;;;42.80;32.28;;;;;;;;;;5073785;28;20535;-67
2022/04/01 06:41:06;;;;;;;30.17;22.70;;;;;;;;;;5073613;28;20231;-67
2022/04/01 06:43:34;;;;;;;31.65;25.95;;;;;;;;;;5073209;28;20488;-67
2022/04/01 06:46:00;;;;;;;36.00;26.23;;;;;;;;;;5073696;28;20175;-67
2022/04/01 06:48:26;;;;;;;32.30;24.43;;;;;;;;;;5073995;28;20402;-67
2022/04/01 06:50:53;;;;;;;31.80;23.60;;;;;;;;;;5073742;28;20402;-67
2022/04/01 06:53:19;;;;;;;35.00;26.35;;;;;;;;;;5073615;28;20403;-67
2022/04/01 06:55:47;;;;;;;35.60;25.70;;;;;;;;;;5073358;28;20179;-67
2022/04/01 06:58:13;;;;;;;55.45;39.08;;;;;;;;;;5073611;28;20183;-67
2022/04/01 07:00:40;;;;;;;35.90;27.73;;;;;;;;;;5073491;28;20227;-68
2022/04/01 07:03:07;;;;;;;32.50;25.05;;;;;;;;;;5072234;28;20444;-66
2022/04/01 07:05:34;;;;;;;37.70;27.40;;;;;;;;;;5072242;28;20183;-70
2022/04/01 07:08:01;;;;;;;40.33;28.37;;;;;;;;;;5073851;28;20164;-66
2022/04/01 07:10:27;;;;;;;40.42;29.00;;;;;;;;;;5073524;28;20769;-68
2022/04/01 07:12:53;;;;;;;38.77;27.43;;;;;;;;;;5073431;28;20172;-68
2022/04/01 07:15:19;;;;;;;40.40;27.80;;;;;;;;;;5072179;28;20413;-69
2022/04/01 07:17:46;;;;;;;38.85;28.13;;;;;;;;;;5073300;28;20418;-68
2022/04/01 07:20:12;;;;;;;39.45;28.50;;;;;;;;;;5073749;28;20180;-67
2022/04/01 07:22:40;;;;;;;43.07;28.93;;;;;;;;;;5073323;28;20218;-67
2022/04/01 07:25:07;;;;;;;39.28;26.70;;;;;;;;;;5073416;28;20395;-67
2022/04/01 07:27:33;;;;;;;41.10;28.83;;;;;;;;;;5073368;28;20185;-67
2022/04/01 07:29:59;;;;;;;41.10;29.80;;;;;;;;;;5073591;28;20167;-68
2022/04/01 07:32:29;;;;;;;43.03;29.67;;;;;;;;;;5073007;28;20187;-67
2022/04/01 07:34:56;;;;;;;44.13;30.73;;;;;;;;;;5073197;28;20164;-67
2022/04/01 07:37:23;;;;;;;44.28;30.42;;;;;;;;;;5073233;28;20258;-68
2022/04/01 07:39:54;;;;;;;47.47;31.63;;;;;;;;;;5073124;28;20233;-67
2022/04/01 07:42:21;;;;;;;44.70;30.77;;;;;;;;;;5073246;28;20188;-67
2022/04/01 07:44:47;;;;;;;45.78;30.95;;;;;;;;;;5073119;28;20195;-68
2022/04/01 07:47:14;;;;;;;71.60;43.15;;;;;;;;;;5072994;28;20173;-67
2022/04/01 07:49:41;;;;;;;53.40;34.47;;;;;;;;;;5073136;28;20203;-67
2022/04/01 07:52:10;;;;;;;52.45;34.15;;;;;;;;;;5073152;28;20558;-67
2022/04/01 07:54:37;;;;;;;49.05;31.33;;;;;;;;;;5073040;28;20171;-67
2022/04/01 07:57:04;;;;;;;43.38;29.70;;;;;;;;;;5072951;28;20635;-67
2022/04/01 07:59:30;;;;;;;54.97;35.00;;;;;;;;;;5071657;28;20195;-67
2022/04/01 08:01:56;;;;;;;46.73;28.43;;;;;;;;;;5072929;28;20172;-67
2022/04/01 08:04:22;;;;;;;49.08;29.10;;;;;;;;;;5072865;28;20552;-67
2022/04/01 08:06:49;;;;;;;40.33;28.55;;;;;;;;;;5073060;28;20171;-67
2022/04/01 08:09:15;;;;;;;58.75;34.35;;;;;;;;;;5075586;28;20175;-69
2022/04/01 08:11:41;;;;;;;111.83;44.40;;;;;;;;;;5076761;28;20207;-67
2022/04/01 08:14:07;;;;;;;120.13;43.03;;;;;;;;;;5076657;28;20405;-67
2022/04/01 08:16:33;;;;;;;51.23;29.60;;;;;;;;;;5076593;28;20414;-67
2022/04/01 08:18:59;;;;;;;44.10;28.63;;;;;;;;;;5076637;28;20807;-67
2022/04/01 08:21:25;;;;;;;41.20;29.27;;;;;;;;;;5075910;28;20459;-68
2022/04/01 08:23:51;;;;;;;44.78;30.23;;;;;;;;;;5076448;28;20219;-68
2022/04/01 08:26:17;;;;;;;59.33;33.70;;;;;;;;;;5076477;28;20255;-68
2022/04/01 08:28:43;;;;;;;41.43;29.43;;;;;;;;;;5076226;28;20195;-68
2022/04/01 08:31:10;;;;;;;38.35;26.75;;;;;;;;;;5076322;28;20502;-67
2022/04/01 08:33:37;;;;;;;37.75;26.60;;;;;;;;;;5076345;28;20168;-68
2022/04/01 08:36:03;;;;;;;39.33;27.75;;;;;;;;;;5076239;28;20196;-67
2022/04/01 08:38:29;;;;;;;37.53;26.70;;;;;;;;;;5076222;28;20156;-67
2022/04/01 08:40:55;;;;;;;38.83;28.05;;;;;;;;;;5075973;28;20231;-67
2022/04/01 08:43:31;;;;;;;38.45;27.33;;;;;;;;;;5076042;28;20203;-67
2022/04/01 08:45:58;;;;;;;40.40;27.80;;;;;;;;;;5075992;28;20216;-67
2022/04/01 08:48:25;;;;;;;39.10;27.63;;;;;;;;;;5075998;28;20175;-68
2022/04/01 08:50:52;;;;;;;63.85;46.17;;;;;;;;;;5074769;28;20196;-67
2022/04/01 08:53:18;;;;;;;36.85;26.95;;;;;;;;;;5075929;28;20542;-68
2022/04/01 08:55:48;;;;;;;34.73;25.17;;;;;;;;;;5075925;28;20172;-68
2022/04/01 08:58:16;;;;;;;37.08;27.17;;;;;;;;;;5074520;28;20505;-67
2022/04/01 09:00:43;;;;;;;38.80;27.45;;;;;;;;;;5074485;28;20168;-68
2022/04/01 09:03:10;;;;;;;40.63;29.15;;;;;;;;;;5074338;28;20282;-67
2022/04/01 09:05:37;;;;;;;36.35;24.25;;;;;;;;;;5075786;28;20519;-67
2022/04/01 09:08:10;;;;;;;36.28;25.45;;;;;;;;;;5075694;28;20539;-67
2022/04/01 09:11:09;;;;;;;35.72;26.15;;;;;;;;;;5075628;28;20156;-67
2022/04/01 09:13:41;;;;;;;38.60;26.52;;;;;;;;;;5042436;28;20188;-67
2022/04/01 09:16:08;;;;;;;34.72;26.85;;;;;;;;;;5075572;28;20204;-68
2022/04/01 09:18:45;;;;;;;31.20;23.30;;;;;;;;;;5075424;28;20221;-67
2022/04/01 09:21:12;;;;;;;37.30;25.00;;;;;;;;;;5075474;28;20258;-66
2022/04/01 09:23:38;;;;;;;38.00;26.98;;;;;;;;;;5075349;28;20303;-67
2022/04/01 09:26:05;;;;;;;33.20;24.20;;;;;;;;;;5075324;28;20180;-67
2022/04/01 09:28:32;;;;;;;30.27;23.30;;;;;;;;;;5075208;28;20176;-67
2022/04/01 09:31:03;;;;;;;36.22;25.58;;;;;;;;;;5075248;28;20226;-67
2022/04/01 09:33:32;;;;;;;31.65;24.00;;;;;;;;;;5075165;28;20163;-67
2022/04/01 09:36:03;;;;;;;32.78;24.10;;;;;;;;;;5075313;28;20623;-67
2022/04/01 09:38:29;;;;;;;32.10;24.40;;;;;;;;;;5075162;28;20171;-67
2022/04/01 09:40:55;;;;;;;36.53;24.97;;;;;;;;;;5074837;28;20231;-67
2022/04/01 09:43:24;;;;;;;33.77;24.73;;;;;;;;;;5073499;28;20859;-67
2022/04/01 09:45:50;;;;;;;40.72;26.10;;;;;;;;;;5074681;28;20410;-67
2022/04/01 09:48:20;;;;;;;32.60;24.47;;;;;;;;;;5074831;28;20519;-68
2022/04/01 09:50:55;;;;;;;36.20;25.88;;;;;;;;;;5073451;28;20446;-67
2022/04/01 09:53:21;;;;;;;33.85;24.30;;;;;;;;;;5074738;28;20175;-68
2022/04/01 09:55:48;;;;;;;38.63;26.90;;;;;;;;;;5074718;28;20242;-66
2022/04/01 09:58:15;;;;;;;44.25;31.77;;;;;;;;;;5074516;28;20460;-68
2022/04/01 10:00:42;;;;;;;45.05;31.80;;;;;;;;;;5074493;28;20164;-67
2022/04/01 10:03:08;;;;;;;38.88;28.55;;;;;;;;;;5074403;28;20195;-67
2022/04/01 10:05:35;;;;;;;48.55;33.17;;;;;;;;;;5074697;28;20262;-67
2022/04/01 10:08:03;;;;;;;37.55;28.20;;;;;;;;;;5073934;28;20168;-68
2022/04/01 10:10:29;;;;;;;30.95;24.15;;;;;;;;;;5074293;28;20176;-67
2022/04/01 10:12:59;;;;;;;24.85;19.88;;;;;;;;;;5073487;28;20171;-67
2022/04/01 10:15:28;;;;;;;23.70;20.60;;;;;;;;;;5073939;28;20163;-67
2022/04/01 10:17:55;;;;;;;23.23;17.77;;;;;;;;;;5074040;28;20174;-67
2022/04/01 10:20:22;;;;;;;19.55;17.45;;;;;;;;;;5073722;28;20544;-78
2022/04/01 10:22:48;;;;;;;21.95;18.60;;;;;;;;;;5073833;28;20207;-69
2022/04/01 10:25:21;;;;;;;20.83;17.65;;;;;;;;;;5073724;28;20163;-69
2022/04/01 10:27:52;;;;;;;28.75;20.63;;;;;;;;;;5073655;28;20178;-68
2022/04/01 10:30:19;;;;;;;20.45;18.27;;;;;;;;;;5073205;28;20163;-68
2022/04/01 10:32:46;;;;;;;21.15;18.88;;;;;;;;;;5072542;28;20262;-68
2022/04/01 10:35:27;;;;;;;19.77;17.48;;;;;;;;;;5073944;28;20201;-69
2022/04/01 10:38:13;;;;;;;21.48;19.23;;;;;;;;;;5073647;28;20156;-69
2022/04/01 10:40:40;;;;;;;18.83;16.83;;;;;;;;;;5073410;28;20219;-68
2022/04/01 10:43:15;;;;;;;22.17;16.65;;;;;;;;;;5073478;28;20218;-69
2022/04/01 10:45:56;;;;;;;17.67;15.35;;;;;;;;;;5073514;28;20340;-71
2022/04/01 10:51:38;;;;;;;15.73;14.13;;;;;;;;;;5073580;28;20175;-69
2022/04/01 10:54:13;;;;;;;14.80;13.35;;;;;;;;;;5073892;28;20164;-70
2022/04/01 10:56:43;;;;;;;17.15;15.32;;;;;;;;;;5073510;28;20712;-69
2022/04/01 10:59:17;;;;;;;14.77;13.32;;;;;;;;;;5072428;28;20643;-69
2022/04/01 11:01:52;;;;;;;15.70;14.15;;;;;;;;;;5073399;28;20206;-70
2022/04/01 11:04:18;;;;;;;14.15;12.85;;;;;;;;;;5073604;28;20561;-71
2022/04/01 11:07:03;;;;;;;15.47;13.80;;;;;;;;;;5073577;28;20164;-70
2022/04/01 11:09:41;;;;;;;14.18;12.65;;;;;;;;;;5073535;28;20759;-69
2022/04/01 11:12:19;;;;;;;12.32;11.27;;;;;;;;;;5073565;28;20163;-69
2022/04/01 11:14:56;;;;;;;11.10;10.07;;;;;;;;;;5073213;28;20242;-69
2022/04/01 11:17:27;;;;;;;12.57;11.57;;;;;;;;;;5071896;28;20175;-71
2022/04/01 11:20:00;;;;;;;13.07;11.73;;;;;;;;;;5072109;28;20552;-70
2022/04/01 11:22:39;;;;;;;10.98;10.05;;;;;;;;;;5073217;28;20170;-69
2022/04/01 11:25:06;;;;;;;10.48;9.55;;;;;;;;;;5073304;28;20232;-69
2022/04/01 11:27:34;;;;;;;10.75;9.95;;;;;;;;;;5071811;28;20585;-73
2022/04/01 11:30:03;;;;;;;11.03;10.13;;;;;;;;;;5073259;28;20198;-69
2022/04/01 11:32:28;;;;;;;16.80;11.25;;;;;;;;;;5071978;28;20901;-69
2022/04/01 11:34:55;;;;;;;11.23;10.43;;;;;;;;;;5071913;28;20217;-69
2022/04/01 11:37:21;;;;;;;10.55;9.75;;;;;;;;;;5073124;28;20406;-69
2022/04/01 11:39:48;;;;;;;12.30;11.30;;;;;;;;;;5072207;28;20227;-70
2022/04/01 11:42:14;;;;;;;10.80;10.07;;;;;;;;;;5073509;28;20413;-68
2022/04/01 11:44:53;;;;;;;9.80;9.10;;;;;;;;;;5077239;28;20211;-69
2022/04/01 11:47:27;;;;;;;11.52;10.52;;;;;;;;;;5075728;28;20418;-68
2022/04/01 11:50:06;;;;;;;9.93;9.13;;;;;;;;;;5077286;28;20171;-69
2022/04/01 11:52:39;;;;;;;9.27;8.38;;;;;;;;;;5077095;28;20163;-68
2022/04/01 11:55:13;;;;;;;9.40;8.65;;;;;;;;;;5077152;28;20172;-68
2022/04/01 11:57:40;;;;;;;8.97;8.30;;;;;;;;;;5077023;28;20174;-68
2022/04/01 12:00:26;;;;;;;8.27;7.80;;;;;;;;;;5077015;28;20881;-70
2022/04/01 12:02:53;;;;;;;7.05;6.75;;;;;;;;;;5076397;28;20235;-68
2022/04/01 12:05:20;;;;;;;7.65;7.20;;;;;;;;;;5076687;28;20179;-68
2022/04/01 12:10:40;;;;;;;8.50;7.90;;;;;;;;;;5076777;28;20835;-66
2022/04/01 12:13:09;;;;;;;7.13;6.77;;;;;;;;;;5076545;28;20175;-71
2022/04/01 12:15:37;;;;;;;8.40;7.90;;;;;;;;;;5076685;28;20401;-70
2022/04/01 12:18:05;;;;;;;9.52;8.93;;;;;;;;;;5076308;28;20176;-70
2022/04/01 12:20:31;;;;;;;8.25;7.75;;;;;;;;;;5076548;28;20160;-70
2022/04/01 12:23:01;;;;;;;8.70;8.10;;;;;;;;;;5076478;28;20214;-69
2022/04/01 12:25:28;;;;;;;7.32;6.82;;;;;;;;;;5076432;28;20511;-70
2022/04/01 12:27:58;;;;;;;10.70;9.95;;;;;;;;;;5076520;28;20160;-70
2022/04/01 12:30:28;;;;;;;7.90;7.50;;;;;;;;;;5076295;28;20172;-71
2022/04/01 12:33:00;;;;;;;7.25;6.85;;;;;;;;;;5076378;28;20168;-72
2022/04/01 12:35:26;;;;;;;7.22;6.88;;;;;;;;;;5076212;28;20176;-71
2022/04/01 12:38:08;;;;;;;7.40;7.03;;;;;;;;;;5076248;28;20643;-72
2022/04/01 12:40:54;;;;;;;7.00;6.60;;;;;;;;;;5075694;28;20440;-70
2022/04/01 12:43:32;;;;;;;7.03;6.70;;;;;;;;;;5074300;28;20560;-72
2022/04/01 12:46:03;;;;;;;8.25;7.75;;;;;;;;;;5075859;28;20194;-69
2022/04/01 12:48:29;;;;;;;8.63;8.05;;;;;;;;;;5075946;28;20564;-70
2022/04/01 12:51:02;;;;;;;7.55;7.15;;;;;;;;;;5075799;28;20582;-70
2022/04/01 12:53:30;;;;;;;7.72;7.32;;;;;;;;;;5075384;28;20214;-71
2022/04/01 12:56:15;;;;;;;8.02;7.63;;;;;;;;;;5075783;28;20535;-70
2022/04/01 12:58:51;;;;;;;7.90;7.40;;;;;;;;;;5076112;28;20171;-72
2022/04/01 13:01:20;;;;;;;7.75;7.30;;;;;;;;;;5075852;28;20511;-71
2022/04/01 13:03:48;;;;;;;8.05;7.50;;;;;;;;;;5075473;28;20679;-69
2022/04/01 13:06:14;;;;;;;6.80;6.50;;;;;;;;;;5075548;28;20517;-69
2022/04/01 13:08:40;;;;;;;6.57;6.25;;;;;;;;;;5075695;28;20176;-68
2022/04/01 13:11:14;;;;;;;7.93;7.30;;;;;;;;;;5075585;28;20164;-68
2022/04/01 13:13:40;;;;;;;7.65;7.25;;;;;;;;;;5075518;28;20172;-69
2022/04/01 13:16:06;;;;;;;8.55;8.02;;;;;;;;;;5075435;28;20179;-69
2022/04/01 13:18:32;;;;;;;8.75;8.20;;;;;;;;;;5075299;28;20176;-69
2022/04/01 13:20:59;;;;;;;8.67;8.07;;;;;;;;;;5074256;28;20241;-69
2022/04/01 13:23:30;;;;;;;8.55;7.95;;;;;;;;;;5075429;28;20560;-69
2022/04/01 13:25:56;;;;;;;8.95;8.35;;;;;;;;;;5075266;28;20158;-69
2022/04/01 13:28:22;;;;;;;9.23;8.67;;;;;;;;;;5073881;28;20183;-69
2022/04/01 13:30:48;;;;;;;9.13;8.60;;;;;;;;;;5075316;28;20409;-69
2022/04/01 13:33:15;;;;;;;8.20;7.70;;;;;;;;;;5074697;28;20934;-70
2022/04/01 13:35:41;;;;;;;7.50;7.13;;;;;;;;;;5075193;28;20489;-71
2022/04/01 13:38:07;;;;;;;8.20;7.80;;;;;;;;;;5075203;28;20168;-72
2022/04/01 13:40:33;;;;;;;10.00;9.30;;;;;;;;;;5074760;28;20227;-74
2022/04/01 13:43:00;;;;;;;8.30;7.80;;;;;;;;;;5074827;28;20456;-72
2022/04/01 13:45:26;;;;;;;9.75;9.05;;;;;;;;;;5073714;28;20186;-75
2022/04/01 13:47:52;;;;;;;9.75;9.15;;;;;;;;;;5074926;28;20182;-73
2022/04/01 13:50:18;;;;;;;8.80;8.10;;;;;;;;;;5074685;28;20247;-73
2022/04/01 13:52:44;;;;;;;8.50;8.00;;;;;;;;;;5074917;28;20203;-77
2022/04/01 13:55:10;;;;;;;9.38;8.75;;;;;;;;;;5074687;28;20401;-74
2022/04/01 13:57:36;;;;;;;10.20;9.40;;;;;;;;;;5074767;28;20258;-73
2022/04/01 14:00:02;;;;;;;11.03;10.10;;;;;;;;;;5074672;28;20412;-72
2022/04/01 14:02:28;;;;;;;12.07;11.07;;;;;;;;;;5074772;28;20469;-77
2022/04/01 14:04:54;;;;;;;12.90;11.80;;;;;;;;;;5073252;28;20655;-74
2022/04/01 14:07:20;;;;;;;13.73;12.27;;;;;;;;;;5070301;28;20418;-77
2022/04/01 14:09:46;;;;;;;13.00;11.90;;;;;;;;;;5071950;28;20210;-76
2022/04/01 14:12:13;;;;;;;31.65;18.83;;;;;;;;;;5072790;28;20505;-78
2022/04/01 14:14:39;;;;;;;32.53;18.67;;;;;;;;;;5074590;28;20204;-76
2022/04/01 14:17:06;;;;;;;16.80;13.47;;;;;;;;;;5072979;28;20183;-73
2022/04/01 14:19:33;;;;;;;19.98;13.77;;;;;;;;;;5074151;28;20407;-73
2022/04/01 14:21:59;;;;;;;34.53;18.67;;;;;;;;;;5074257;28;20650;-73
2022/04/01 14:24:25;;;;;;;26.10;15.90;;;;;;;;;;5074146;28;20734;-73
2022/04/01 14:26:52;;;;;;;22.60;15.20;;;;;;;;;;5074282;28;20251;-73
2022/04/01 14:32:03;;;;;;;14.63;10.93;;;;;;;;;;5074225;28;20626;-75
2022/04/01 14:34:35;;;;;;;19.33;14.02;;;;;;;;;;5074014;28;20168;-72
2022/04/01 14:37:01;;;;;;;12.87;11.57;;;;;;;;;;5072795;28;20305;-75
2022/04/01 14:39:28;;;;;;;21.05;15.80;;;;;;;;;;5073901;28;20776;-73
2022/04/01 14:41:54;;;;;;;16.75;14.95;;;;;;;;;;5073990;28;20640;-73
2022/04/01 14:44:20;;;;;;;24.90;15.93;;;;;;;;;;5073985;28;20206;-77